KSCF/SCF METAR and TAF weather

Enter ICAO airport designator
Station Type Date Time Source
KSCF METAR 2019/02/10 16:25 UTC NOAA

KSCF 101625Z AUTO 07015KT 10SM BKN043 14/11 A3021 RMK A01


Station Type Date Time Source
KSCF Decoded METAR 2019/02/10 16:25 UTC NOAA

South Marsh 268, LA, United States (KSCF) 29-06-57N 091-52-16W
Feb 10, 2019 - 11:25 AM EST / 2019.02.10 1625 UTC
Wind: from the ENE (070 degrees) at 17 MPH (15 KT):0
Visibility: 10 mile(s):0
Sky conditions: mostly cloudy
Temperature: 57 F (14 C)
Dew Point: 51 F (11 C)
Relative Humidity: 82%
Pressure (altimeter): 30.21 in. Hg (1023 hPa)
ob: KSCF 101625Z AUTO 07015KT 10SM BKN043 14/11 A3021 RMK A01
cycle: 16

Station Type Date Time Source
KSCF TAF UTC NOAA

Error!


Example: see airport list